Time;durP1;ratioP1;P1;durP2;ratioP2;P2;SDS_P1;SDS_P2;PMS_P1;PMS_P2;Temp;Humidity;BMP_temperature;BMP_pressure;BME280_temperature;BME280_humidity;BME280_pressure;Samples;Min_cycle;Max_cycle;Signal;HPM_P1;HPM_P2
2022/03/22 00:00:07;;;;;;;;;;;;;;;22.08;14.04;99075.59;4977706;28;1007;-73
2022/03/22 00:02:37;;;;;;;;;;;;;;;22.49;13.68;99076.75;5013157;28;1057;-73
2022/03/22 00:05:03;;;;;;;;;;;;;;;22.09;13.90;99076.41;5014729;28;1902;-73
2022/03/22 00:07:29;;;;;;;;;;;;;;;21.66;14.37;99074.03;5015163;28;1012;-73
2022/03/22 00:09:55;;;;;;;;;;;;;;;21.45;14.54;99071.38;5015397;28;1068;-73
2022/03/22 00:12:20;;;;;;;;;;;;;;;21.84;14.25;99074.63;5015507;28;1115;-73
2022/03/22 00:14:46;;;;;;;;;;;;;;;22.41;13.51;99078.06;5015230;28;1033;-73
2022/03/22 00:17:11;;;;;;;;;;;;;;;22.56;13.48;99073.81;5015008;28;987;-73
2022/03/22 00:19:37;;;;;;;;;;;;;;;22.63;13.31;99068.03;5014915;28;1059;-73
2022/03/22 00:22:03;;;;;;;;;;;;;;;21.86;13.75;99062.88;5014525;28;1246;-73
2022/03/22 00:24:29;;;;;;;;;;;;;;;21.53;14.43;99067.28;5019646;28;1898;-73
2022/03/22 00:26:55;;;;;;;;;;;;;;;21.46;14.37;99059.66;5054638;28;1115;-73
2022/03/22 00:29:20;;;;;;;;;;;;;;;22.20;13.80;99060.09;5054486;28;1030;-73
2022/03/22 00:31:45;;;;;;;;;;;;;;;22.49;13.49;99054.06;5054364;28;1123;-73
2022/03/22 00:34:13;;;;;;;;;;;;;;;22.56;13.42;99048.28;5037568;28;1054;-73
2022/03/22 00:36:41;;;;;;;;;;;;;;;21.79;13.79;99043.94;5054697;28;980;-73
2022/03/22 00:39:07;;;;;;;;;;;;;;;21.64;14.16;99039.66;5057082;28;931;-73
2022/03/22 00:41:32;;;;;;;;;;;;;;;21.87;13.92;99029.72;5056927;28;1055;-73
2022/03/22 00:43:58;;;;;;;;;;;;;;;22.22;13.90;99029.28;5094264;28;1045;-73
2022/03/22 00:46:23;;;;;;;;;;;;;;;22.35;13.66;99030.34;5094519;28;1918;-73
2022/03/22 00:48:49;;;;;;;;;;;;;;;22.06;13.71;99026.22;5094327;28;1036;-73
2022/03/22 00:51:14;;;;;;;;;;;;;;;21.71;14.32;99016.94;5077078;28;1031;-73
2022/03/22 00:53:40;;;;;;;;;;;;;;;21.55;14.39;99020.34;5094327;28;1183;-73
2022/03/22 00:56:06;;;;;;;;;;;;;;;22.14;13.76;99005.09;5094324;28;971;-73
2022/03/22 00:58:32;;;;;;;;;;;;;;;22.36;13.74;99003.59;5094333;28;1102;-73
2022/03/22 01:00:58;;;;;;;;;;;;;;;22.49;13.17;99008.69;5094220;28;1156;-73
2022/03/22 01:03:23;;;;;;;;;;;;;;;22.05;13.90;99005.59;5094149;28;1201;-73
2022/03/22 01:05:52;;;;;;;;;;;;;;;21.63;14.15;98998.38;5093834;28;1993;-73
2022/03/22 01:08:18;;;;;;;;;;;;;;;21.47;14.32;98989.66;5094126;28;953;-73
2022/03/22 01:10:44;;;;;;;;;;;;;;;22.12;13.77;98979.19;5093655;28;1068;-73
2022/03/22 01:13:11;;;;;;;;;;;;;;;22.30;13.64;98988.28;5093995;28;1000;-73
2022/03/22 01:15:36;;;;;;;;;;;;;;;22.45;13.58;98982.41;5064155;28;915;-73
2022/03/22 01:18:06;;;;;;;;;;;;;;;22.50;13.27;98981.94;5056004;28;1054;-73
2022/03/22 01:20:35;;;;;;;;;;;;;;;21.68;13.97;98966.78;5093604;28;1310;-73
2022/03/22 01:23:02;;;;;;;;;;;;;;;21.53;14.25;98971.00;5093676;28;1029;-73
2022/03/22 01:25:28;;;;;;;;;;;;;;;21.82;13.93;98969.44;5093757;28;1980;-73
2022/03/22 01:27:53;;;;;;;;;;;;;;;22.17;13.75;98970.22;5093660;28;1163;-73
2022/03/22 01:30:19;;;;;;;;;;;;;;;22.36;13.55;98963.88;5073150;28;1021;-73
2022/03/22 01:32:45;;;;;;;;;;;;;;;22.54;13.39;98965.66;5013036;28;1387;-73
2022/03/22 01:35:11;;;;;;;;;;;;;;;21.77;13.85;98963.44;5013520;28;968;-73
2022/03/22 01:37:36;;;;;;;;;;;;;;;21.53;14.32;98954.00;4994178;28;1018;-73
2022/03/22 01:40:02;;;;;;;;;;;;;;;21.69;14.16;98962.72;4993398;28;1047;-73
2022/03/22 01:42:28;;;;;;;;;;;;;;;22.26;13.58;98967.69;4977729;28;1091;-73
2022/03/22 01:44:54;;;;;;;;;;;;;;;22.46;13.20;98956.44;4993518;28;1906;-73
2022/03/22 01:47:21;;;;;;;;;;;;;;;22.66;13.46;98962.22;4993606;28;938;-73
2022/03/22 01:49:47;;;;;;;;;;;;;;;22.03;13.71;98959.06;4993897;28;1161;-73
2022/03/22 01:52:15;;;;;;;;;;;;;;;21.56;13.97;98953.16;4947299;28;1011;-73
2022/03/22 01:54:41;;;;;;;;;;;;;;;21.43;14.19;98955.72;4935785;29;1012;-73
2022/03/22 01:57:07;;;;;;;;;;;;;;;22.05;13.97;98950.94;4974114;28;1005;-73
2022/03/22 01:59:33;;;;;;;;;;;;;;;22.42;13.30;98952.88;4974104;28;1152;-73
2022/03/22 02:07:31;;;;;;;;;;;;;;;21.46;14.30;98942.75;5014596;28;1088;-73
2022/03/22 02:09:57;;;;;;;;;;;;;;;21.85;13.88;98940.25;5052263;28;900;-73
2022/03/22 02:12:23;;;;;;;;;;;;;;;22.19;13.89;98935.81;5052582;28;1034;-73
2022/03/22 02:14:48;;;;;;;;;;;;;;;22.48;13.67;98939.00;5052540;28;971;-74
2022/03/22 02:17:14;;;;;;;;;;;;;;;22.42;13.65;98940.72;5052625;28;991;-73
2022/03/22 02:19:39;;;;;;;;;;;;;;;21.81;14.18;98936.69;5032286;28;1203;-73
2022/03/22 02:22:09;;;;;;;;;;;;;;;21.46;14.33;98931.44;5032190;28;1129;-73
2022/03/22 02:24:36;;;;;;;;;;;;;;;21.64;14.25;98934.84;5032692;28;1918;-73
2022/03/22 02:27:01;;;;;;;;;;;;;;;22.20;13.91;98935.38;4984007;28;1115;-73
2022/03/22 02:29:27;;;;;;;;;;;;;;;22.47;13.75;98928.91;5019671;28;1159;-73
2022/03/22 02:31:53;;;;;;;;;;;;;;;22.55;13.68;98938.91;5019431;28;949;-73
2022/03/22 02:34:18;;;;;;;;;;;;;;;21.77;14.38;98935.13;5019054;28;991;-73
2022/03/22 02:36:44;;;;;;;;;;;;;;;21.50;14.37;98932.19;5019173;28;1173;-73
2022/03/22 02:39:10;;;;;;;;;;;;;;;21.77;14.52;98930.25;5037649;28;1017;-73
2022/03/22 02:41:36;;;;;;;;;;;;;;;22.26;13.89;98930.03;5039213;28;1029;-73
2022/03/22 02:44:01;;;;;;;;;;;;;;;22.40;13.62;98932.66;5038743;28;1010;-73
2022/03/22 02:46:27;;;;;;;;;;;;;;;22.36;13.95;98926.22;5039234;28;1954;-73
2022/03/22 02:48:52;;;;;;;;;;;;;;;21.72;14.38;98927.88;5039080;28;1052;-73
2022/03/22 02:51:17;;;;;;;;;;;;;;;21.38;14.48;98915.75;5039148;28;970;-73
2022/03/22 02:53:43;;;;;;;;;;;;;;;21.44;14.65;98919.72;5022851;28;937;-73
2022/03/22 02:56:09;;;;;;;;;;;;;;;22.07;14.30;98914.44;5041117;28;998;-73
2022/03/22 02:58:34;;;;;;;;;;;;;;;22.40;13.77;98909.16;5061596;28;945;-73
2022/03/22 03:01:00;;;;;;;;;;;;;;;22.48;13.82;98904.97;5061615;28;962;-73
2022/03/22 03:03:26;;;;;;;;;;;;;;;22.26;13.77;98905.31;5061437;28;906;-73
2022/03/22 03:05:51;;;;;;;;;;;;;;;21.58;14.37;98908.22;5061267;28;1902;-73
2022/03/22 03:08:17;;;;;;;;;;;;;;;21.34;14.52;98901.63;5061390;28;1015;-73
2022/03/22 03:10:44;;;;;;;;;;;;;;;22.02;14.36;98895.91;5061184;28;810;-73
2022/03/22 03:13:12;;;;;;;;;;;;;;;22.44;14.00;98901.41;5061491;28;1006;-73
2022/03/22 03:15:37;;;;;;;;;;;;;;;22.57;13.68;98908.06;5061156;28;977;-73
2022/03/22 03:18:03;;;;;;;;;;;;;;;22.20;14.12;98897.72;5061346;28;971;-73
2022/03/22 03:20:28;;;;;;;;;;;;;;;21.81;14.52;98902.69;5061184;28;1189;-73
2022/03/22 03:22:54;;;;;;;;;;;;;;;21.58;14.51;98896.91;5061222;28;917;-73
2022/03/22 03:25:19;;;;;;;;;;;;;;;21.90;14.35;98890.00;5061051;28;1965;-73
2022/03/22 03:27:45;;;;;;;;;;;;;;;22.29;14.31;98889.47;5061508;28;833;-73
2022/03/22 03:30:10;;;;;;;;;;;;;;;22.58;13.55;98881.31;5061395;28;956;-73
2022/03/22 03:32:36;;;;;;;;;;;;;;;22.09;14.19;98884.47;5060879;28;995;-73
2022/03/22 03:35:01;;;;;;;;;;;;;;;21.82;14.24;98886.50;5061239;28;913;-73
2022/03/22 03:37:32;;;;;;;;;;;;;;;21.39;14.99;98891.88;5060968;28;883;-73
2022/03/22 03:39:58;;;;;;;;;;;;;;;21.97;14.47;98887.09;5057746;28;1007;-73
2022/03/22 03:42:23;;;;;;;;;;;;;;;22.43;14.03;98888.44;5057771;28;985;-73
2022/03/22 03:47:34;;;;;;;;;;;;;;;21.87;14.58;98899.38;5057827;28;932;-74
2022/03/22 03:50:00;;;;;;;;;;;;;;;21.63;14.75;98890.78;5057466;28;981;-73
2022/03/22 03:52:26;;;;;;;;;;;;;;;21.52;14.82;98899.41;5057646;28;1003;-73
2022/03/22 03:54:52;;;;;;;;;;;;;;;22.09;14.13;98900.69;5058015;28;1062;-73
2022/03/22 03:57:18;;;;;;;;;;;;;;;22.27;14.09;98900.44;5057726;28;921;-73
2022/03/22 03:59:43;;;;;;;;;;;;;;;22.63;13.77;98895.00;5057423;28;955;-73
2022/03/22 04:02:10;;;;;;;;;;;;;;;21.77;14.67;98890.59;5057597;28;1010;-73
2022/03/22 04:04:36;;;;;;;;;;;;;;;21.52;14.88;98884.44;5057275;28;1898;-73
2022/03/22 04:07:02;;;;;;;;;;;;;;;21.68;14.55;98881.81;5057626;28;925;-73
2022/03/22 04:09:28;;;;;;;;;;;;;;;22.19;14.43;98888.41;5057734;28;887;-73
2022/03/22 04:11:54;;;;;;;;;;;;;;;22.34;14.28;98884.13;5094903;28;1050;-73
2022/03/22 04:14:19;;;;;;;;;;;;;;;22.48;13.79;98882.28;5074444;28;1126;-73
2022/03/22 04:16:46;;;;;;;;;;;;;;;21.83;14.64;98877.56;5074491;28;986;-73
2022/03/22 04:19:11;;;;;;;;;;;;;;;21.65;14.94;98871.31;5074768;28;955;-73
2022/03/22 04:21:38;;;;;;;;;;;;;;;21.87;14.79;98871.84;5074417;28;1372;-72
2022/03/22 04:24:07;;;;;;;;;;;;;;;22.33;14.30;98871.19;5074419;28;970;-72
2022/03/22 04:26:42;;;;;;;;;;;;;;;22.46;14.25;98874.22;5074387;28;1895;-73
2022/03/22 04:34:36;;;;;;;;;;;;;;;21.90;14.81;98870.19;5071559;28;1260;-72
2022/03/22 04:37:01;;;;;;;;;;;;;;;22.26;14.40;98865.63;5064949;28;1250;-73
2022/03/22 04:39:28;;;;;;;;;;;;;;;22.51;13.96;98864.41;5058869;28;2105;-73
2022/03/22 04:41:54;;;;;;;;;;;;;;;22.43;14.24;98857.25;5072091;28;1994;-73
2022/03/22 04:44:19;;;;;;;;;;;;;;;21.77;15.03;98862.25;5053905;28;990;-73
2022/03/22 04:46:46;;;;;;;;;;;;;;;21.52;15.12;98873.13;5053924;28;1906;-72
2022/03/22 04:49:12;;;;;;;;;;;;;;;22.00;14.75;98880.56;5048449;28;1778;-73
2022/03/22 04:57:05;;;;;;;;;;;;;;;22.47;14.38;98869.34;5093817;28;1029;-73
2022/03/22 04:59:31;;;;;;;;;;;;;;;21.80;14.87;98858.56;5085963;28;1671;-73
2022/03/22 05:01:57;;;;;;;;;;;;;;;21.63;14.77;98868.13;5073850;28;961;-73
2022/03/22 05:04:22;;;;;;;;;;;;;;;21.64;15.12;98864.03;5073897;28;1843;-73
2022/03/22 05:06:48;;;;;;;;;;;;;;;22.30;14.52;98865.56;5073349;28;1988;-73
2022/03/22 05:09:13;;;;;;;;;;;;;;;22.65;14.26;98858.50;5073797;28;1797;-73
2022/03/22 05:11:39;;;;;;;;;;;;;;;22.54;14.21;98852.22;5075572;28;1891;-73
2022/03/22 05:14:04;;;;;;;;;;;;;;;21.87;14.76;98854.84;5093662;28;1774;-73
2022/03/22 05:16:30;;;;;;;;;;;;;;;21.47;15.45;98848.91;5075553;28;1619;-73
2022/03/22 05:18:57;;;;;;;;;;;;;;;21.70;15.21;98851.00;5060932;28;1670;-72
2022/03/22 05:21:23;;;;;;;;;;;;;;;22.28;14.67;98845.38;5086909;28;1082;-73
2022/03/22 05:23:48;;;;;;;;;;;;;;;22.54;14.50;98849.38;5055836;28;1121;-72
2022/03/22 05:26:14;;;;;;;;;;;;;;;21.93;14.77;98847.47;5055732;28;1989;-73
2022/03/22 05:28:39;;;;;;;;;;;;;;;21.63;15.07;98853.94;5061799;28;1719;-73
2022/03/22 05:31:05;;;;;;;;;;;;;;;21.63;15.10;98851.13;5053439;28;1137;-73
2022/03/22 05:33:31;;;;;;;;;;;;;;;22.11;15.03;98858.56;5053260;28;1056;-73
2022/03/22 05:35:56;;;;;;;;;;;;;;;22.42;14.62;98850.78;5053319;28;949;-73
2022/03/22 05:38:25;;;;;;;;;;;;;;;22.16;14.76;98855.25;5062429;28;1557;-73
2022/03/22 05:40:51;;;;;;;;;;;;;;;21.65;15.27;98854.31;5052527;28;992;-72
2022/03/22 05:43:16;;;;;;;;;;;;;;;21.53;15.56;98846.41;5052666;28;1355;-73
2022/03/22 05:45:44;;;;;;;;;;;;;;;21.83;15.24;98860.56;5053375;28;1906;-73
2022/03/22 05:48:09;;;;;;;;;;;;;;;22.26;15.02;98851.44;5044978;28;1807;-72
2022/03/22 05:50:35;;;;;;;;;;;;;;;22.57;14.46;98851.34;5032977;28;1018;-73
2022/03/22 05:53:00;;;;;;;;;;;;;;;22.07;14.94;98841.59;5033018;28;1134;-73
2022/03/22 05:55:26;;;;;;;;;;;;;;;21.61;15.54;98842.25;5032866;28;1000;-73
2022/03/22 05:57:51;;;;;;;;;;;;;;;21.40;15.68;98839.66;5043125;28;1704;-73
2022/03/22 06:00:18;;;;;;;;;;;;;;;22.02;15.38;98838.41;5066844;28;1682;-73
2022/03/22 06:02:43;;;;;;;;;;;;;;;22.33;14.71;98827.84;5072062;28;1038;-72
2022/03/22 06:05:09;;;;;;;;;;;;;;;22.56;14.82;98833.53;5072752;28;1906;-73
2022/03/22 06:07:35;;;;;;;;;;;;;;;21.86;15.46;98839.06;5064658;28;1800;-73
2022/03/22 06:10:01;;;;;;;;;;;;;;;21.49;15.59;98829.44;5038045;28;1850;-73
2022/03/22 06:12:33;;;;;;;;;;;;;;;21.63;15.68;98839.00;5064888;28;1647;-73
2022/03/22 06:15:14;;;;;;;;;;;;;;;22.18;15.08;98824.44;5069642;28;1025;-73
2022/03/22 06:17:40;;;;;;;;;;;;;;;22.48;14.83;98839.75;5063018;28;1821;-72
2022/03/22 06:20:06;;;;;;;;;;;;;;;22.60;14.89;98827.81;5112905;28;1238;-73
2022/03/22 06:22:32;;;;;;;;;;;;;;;21.95;15.30;98815.88;5113167;28;1006;-73
2022/03/22 06:24:57;;;;;;;;;;;;;;;21.58;15.93;98828.94;5079058;28;1980;-72
2022/03/22 06:27:22;;;;;;;;;;;;;;;21.52;15.97;98822.94;5107114;28;1642;-73
2022/03/22 06:29:48;;;;;;;;;;;;;;;22.03;15.47;98823.03;5072064;28;1771;-73
2022/03/22 06:32:13;;;;;;;;;;;;;;;22.38;14.93;98820.88;5072613;28;965;-73
2022/03/22 06:34:39;;;;;;;;;;;;;;;22.61;15.07;98818.06;5072164;28;1037;-73
2022/03/22 06:37:05;;;;;;;;;;;;;;;22.28;15.31;98820.66;5099480;28;1894;-73
2022/03/22 06:39:30;;;;;;;;;;;;;;;21.69;15.71;98832.41;5106005;28;1786;-73
2022/03/22 06:41:56;;;;;;;;;;;;;;;21.52;16.18;98825.78;5111243;28;1800;-72
2022/03/22 06:44:21;;;;;;;;;;;;;;;22.03;15.66;98834.38;5079099;28;1176;-73
2022/03/22 06:46:47;;;;;;;;;;;;;;;22.45;15.38;98832.13;5112724;28;1909;-73
2022/03/22 06:49:12;;;;;;;;;;;;;;;22.69;15.15;98830.88;5078526;28;1043;-72
2022/03/22 06:51:38;;;;;;;;;;;;;;;22.72;15.18;98835.69;5078407;28;1985;-73
2022/03/22 06:54:03;;;;;;;;;;;;;;;21.90;15.88;98830.50;5055199;28;988;-72
2022/03/22 06:56:28;;;;;;;;;;;;;;;21.74;16.08;98840.44;5054782;28;932;-73
2022/03/22 06:58:54;;;;;;;;;;;;;;;21.40;16.13;98836.84;5054748;28;1040;-72
2022/03/22 07:01:19;;;;;;;;;;;;;;;22.05;15.98;98840.41;5066936;28;1698;-73
2022/03/22 07:03:45;;;;;;;;;;;;;;;22.36;15.71;98847.63;5074734;28;897;-73
2022/03/22 07:06:10;;;;;;;;;;;;;;;22.49;15.46;98832.88;5060165;28;1917;-72
2022/03/22 07:08:36;;;;;;;;;;;;;;;21.83;15.88;98846.38;5054813;28;1096;-72
2022/03/22 07:13:46;;;;;;;;;;;;;;;21.75;16.30;98833.53;5092880;28;1040;-72
2022/03/22 07:16:11;;;;;;;;;;;;;;;22.23;15.77;98832.47;5078967;28;1056;-73
2022/03/22 07:18:36;;;;;;;;;;;;;;;22.50;15.78;98837.28;5096193;28;971;-73
2022/03/22 07:21:04;;;;;;;;;;;;;;;22.52;15.76;98837.66;5085914;28;1810;-72
2022/03/22 07:23:30;;;;;;;;;;;;;;;21.82;16.31;98838.31;5075718;28;985;-73
2022/03/22 07:25:55;;;;;;;;;;;;;;;21.62;16.62;98826.84;5075364;28;1903;-73
2022/03/22 07:28:21;;;;;;;;;;;;;;;21.62;16.56;98826.06;5075178;28;1219;-73
2022/03/22 07:30:46;;;;;;;;;;;;;;;22.30;15.85;98834.38;5090562;28;1721;-73
2022/03/22 07:33:12;;;;;;;;;;;;;;;22.43;16.00;98831.72;5075499;28;931;-73
2022/03/22 07:35:37;;;;;;;;;;;;;;;22.58;15.76;98835.91;5075252;28;952;-73
2022/03/22 07:38:03;;;;;;;;;;;;;;;21.45;16.54;98839.22;5062004;28;1878;-73
2022/03/22 07:40:28;;;;;;;;;;;;;;;21.45;16.72;98839.22;5094481;28;1876;-73
2022/03/22 07:42:54;;;;;;;;;;;;;;;21.98;16.36;98834.84;5080427;28;2434;-73
2022/03/22 07:45:20;;;;;;;;;;;;;;;22.29;16.08;98830.75;5077746;28;1898;-72
2022/03/22 07:47:45;;;;;;;;;;;;;;;22.59;15.84;98848.91;5077836;28;1076;-73
2022/03/22 07:53:07;;;;;;;;;;;;;;;21.66;16.65;98838.13;5064791;28;960;-73
2022/03/22 07:55:33;;;;;;;;;;;;;;;21.67;16.75;98839.75;5067170;28;1876;-73
2022/03/22 07:57:59;;;;;;;;;;;;;;;22.31;16.45;98850.94;5077703;28;941;-73
2022/03/22 08:00:28;;;;;;;;;;;;;;;22.56;16.27;98853.38;5077588;28;1019;-73
2022/03/22 08:02:55;;;;;;;;;;;;;;;22.44;16.17;98841.84;5077469;28;1023;-73
2022/03/22 08:05:20;;;;;;;;;;;;;;;21.60;17.10;98846.28;5115338;28;1973;-73
2022/03/22 08:07:46;;;;;;;;;;;;;;;21.62;16.74;98835.34;5115474;28;1009;-73
2022/03/22 08:10:11;;;;;;;;;;;;;;;21.74;16.96;98845.31;5097651;28;1805;-72
2022/03/22 08:12:37;;;;;;;;;;;;;;;22.40;16.36;98850.41;5095226;28;1124;-73
2022/03/22 08:15:03;;;;;;;;;;;;;;;22.63;16.06;98849.59;5094971;28;984;-73
2022/03/22 08:17:28;;;;;;;;;;;;;;;22.60;16.40;98850.50;5094780;28;996;-73
2022/03/22 08:19:53;;;;;;;;;;;;;;;21.85;17.01;98852.41;5107916;28;1725;-72
2022/03/22 08:22:19;;;;;;;;;;;;;;;21.51;17.17;98848.84;5085836;28;1678;-73
2022/03/22 08:24:45;;;;;;;;;;;;;;;22.15;16.85;98862.16;5089765;28;1980;-73
2022/03/22 08:27:10;;;;;;;;;;;;;;;22.32;16.55;98858.22;5069939;28;1730;-73
2022/03/22 08:29:36;;;;;;;;;;;;;;;22.54;16.24;98852.22;5094899;28;961;-73
2022/03/22 08:32:01;;;;;;;;;;;;;;;21.79;17.19;98871.13;5074326;28;983;-73
2022/03/22 08:34:26;;;;;;;;;;;;;;;21.72;17.32;98845.75;5074654;28;1020;-73
2022/03/22 08:36:54;;;;;;;;;;;;;;;21.51;17.63;98843.19;5059932;28;1009;-73
2022/03/22 08:39:19;;;;;;;;;;;;;;;22.10;16.98;98845.59;5052533;28;1753;-73
2022/03/22 08:41:45;;;;;;;;;;;;;;;22.34;16.68;98841.59;5033690;28;2324;-73
2022/03/22 08:44:11;;;;;;;;;;;;;;;22.56;16.20;98827.84;5036255;28;1811;-73
2022/03/22 08:46:37;;;;;;;;;;;;;;;21.89;17.07;98820.41;5034672;28;2001;-73
2022/03/22 08:49:02;;;;;;;;;;;;;;;21.58;17.52;98809.09;5038572;28;2056;-73
2022/03/22 08:51:28;;;;;;;;;;;;;;;21.86;17.42;98802.22;5054245;28;1116;-73
2022/03/22 08:53:54;;;;;;;;;;;;;;;22.18;17.07;98817.97;5057813;28;1733;-73
2022/03/22 08:56:22;;;;;;;;;;;;;;;22.44;16.78;98824.84;5053919;28;1072;-73
2022/03/22 08:58:51;;;;;;;;;;;;;;;22.62;16.62;98828.16;5014047;28;1024;-72
2022/03/22 09:01:17;;;;;;;;;;;;;;;21.77;17.43;98822.59;5013991;28;1057;-73
2022/03/22 09:03:43;;;;;;;;;;;;;;;21.56;17.52;98823.69;5014245;28;1632;-73
2022/03/22 09:06:08;;;;;;;;;;;;;;;21.65;17.58;98820.31;5033463;28;1914;-72
2022/03/22 09:08:37;;;;;;;;;;;;;;;22.25;17.20;98818.66;5028880;28;1779;-73
2022/03/22 09:11:02;;;;;;;;;;;;;;;22.53;16.72;98825.06;5033777;28;962;-73
2022/03/22 09:13:31;;;;;;;;;;;;;;;22.26;17.15;98814.59;5033833;28;1037;-73
2022/03/22 09:15:56;;;;;;;;;;;;;;;21.71;17.70;98812.97;5033832;28;1006;-73
2022/03/22 09:18:22;;;;;;;;;;;;;;;21.44;17.90;98818.59;5015846;28;1072;-73
2022/03/22 09:20:48;;;;;;;;;;;;;;;22.15;17.08;98821.66;5041522;28;1814;-73
2022/03/22 09:23:13;;;;;;;;;;;;;;;22.43;16.68;98809.84;5053562;28;934;-73
2022/03/22 09:25:42;;;;;;;;;;;;;;;22.47;17.01;98823.97;5047482;28;1902;-73
2022/03/22 09:28:07;;;;;;;;;;;;;;;21.72;17.78;98825.13;5053151;28;883;-73
2022/03/22 09:30:34;;;;;;;;;;;;;;;21.49;17.92;98817.31;5071970;28;1159;-73
2022/03/22 09:33:01;;;;;;;;;;;;;;;21.79;17.59;98827.84;5113617;28;1174;-73
2022/03/22 09:35:27;;;;;;;;;;;;;;;22.26;17.04;98814.59;5065559;28;1722;-73
2022/03/22 09:37:53;;;;;;;;;;;;;;;22.52;16.97;98804.41;5092656;28;996;-73
2022/03/22 09:40:18;;;;;;;;;;;;;;;21.91;17.15;98809.44;5093149;28;903;-73
2022/03/22 09:42:47;;;;;;;;;;;;;;;21.57;17.67;98819.63;5093113;28;1044;-73
2022/03/22 09:45:17;;;;;;;;;;;;;;;21.51;17.96;98821.34;5105604;28;1906;-73
2022/03/22 09:47:44;;;;;;;;;;;;;;;22.17;17.47;98827.69;5094673;28;1879;-72
2022/03/22 09:50:10;;;;;;;;;;;;;;;22.48;17.02;98828.41;5093456;28;1063;-73
2022/03/22 09:52:35;;;;;;;;;;;;;;;22.43;16.94;98807.00;5093304;28;1092;-73
2022/03/22 09:55:01;;;;;;;;;;;;;;;21.81;17.42;98782.88;5093116;28;1007;-72
2022/03/22 09:57:28;;;;;;;;;;;;;;;21.60;17.99;98800.97;5107734;28;2059;-73
2022/03/22 09:59:53;;;;;;;;;;;;;;;21.63;17.75;98800.13;5072285;28;1691;-73
2022/03/22 10:02:26;;;;;;;;;;;;;;;22.23;17.06;98815.47;5073137;28;1000;-73
2022/03/22 10:04:52;;;;;;;;;;;;;;;22.55;16.96;98808.44;5055269;28;1914;-73
2022/03/22 10:07:18;;;;;;;;;;;;;;;22.26;17.20;98803.25;5038921;28;1676;-73
2022/03/22 10:09:47;;;;;;;;;;;;;;;21.82;17.48;98799.47;5032730;28;961;-73
2022/03/22 10:12:12;;;;;;;;;;;;;;;21.61;17.75;98799.78;5032705;28;999;-73
2022/03/22 10:14:39;;;;;;;;;;;;;;;22.04;17.44;98790.63;4992376;28;2032;-73
2022/03/22 10:17:22;;;;;;;;;;;;;;;22.35;17.20;98797.81;4973443;28;1699;-73
2022/03/22 10:19:49;;;;;;;;;;;;;;;21.96;17.38;98806.94;4973051;28;1679;-73
2022/03/22 10:22:14;;;;;;;;;;;;;;;21.71;17.92;98801.66;4973791;28;961;-73
2022/03/22 10:24:43;;;;;;;;;;;;;;;21.52;18.11;98799.50;4973753;28;975;-73
2022/03/22 10:27:28;;;;;;;;;;;;;;;22.05;17.51;98797.91;4973770;28;980;-73
2022/03/22 10:29:54;;;;;;;;;;;;;;;22.41;16.90;98797.34;4972969;28;1671;-73
2022/03/22 10:32:32;;;;;;;;;;;;;;;22.57;16.75;98800.28;4969477;28;1505;-73
2022/03/22 10:35:14;;;;;;;;;;;;;;;21.98;17.63;98803.69;4968856;28;1866;-73
2022/03/22 10:37:43;;;;;;;;;;;;;;;21.58;18.21;98786.47;4981517;28;1133;-73
2022/03/22 10:40:21;;;;;;;;;;;;;;;21.40;18.43;98811.38;4987115;28;1709;-73
2022/03/22 10:42:47;;;;;;;;;;;;;;;21.82;17.96;98790.97;4992855;28;1027;-73
2022/03/22 10:45:12;;;;;;;;;;;;;;;22.29;17.19;98802.41;5025030;28;1998;-73
2022/03/22 10:47:38;;;;;;;;;;;;;;;22.64;17.09;98803.00;5060565;28;1723;-73
2022/03/22 10:50:05;;;;;;;;;;;;;;;21.96;17.53;98789.91;5079782;28;1116;-73
2022/03/22 10:52:31;;;;;;;;;;;;;;;21.71;17.92;98801.66;5076165;28;1021;-73
2022/03/22 10:54:56;;;;;;;;;;;;;;;21.59;18.02;98805.03;5076257;28;1034;-73
2022/03/22 10:57:28;;;;;;;;;;;;;;;21.98;18.06;98809.34;5075472;28;1780;-73
2022/03/22 10:59:55;;;;;;;;;;;;;;;22.33;17.38;98811.66;5036086;28;1089;-73
2022/03/22 11:02:21;;;;;;;;;;;;;;;22.58;17.12;98796.22;5036010;28;1064;-73
2022/03/22 11:04:47;;;;;;;;;;;;;;;21.94;17.85;98791.59;5036002;28;1917;-73
2022/03/22 11:07:12;;;;;;;;;;;;;;;21.75;17.85;98808.03;5033719;28;1744;-73
2022/03/22 11:09:38;;;;;;;;;;;;;;;21.63;18.20;98805.81;5036035;28;1000;-73
2022/03/22 11:12:03;;;;;;;;;;;;;;;21.90;17.79;98807.84;4995894;28;1765;-73
2022/03/22 11:14:29;;;;;;;;;;;;;;;22.46;17.41;98811.81;4995858;28;1627;-73
2022/03/22 11:16:54;;;;;;;;;;;;;;;22.57;17.39;98800.28;5000053;28;1729;-73
2022/03/22 11:19:20;;;;;;;;;;;;;;;22.60;17.08;98810.78;4976183;28;1800;-73
2022/03/22 11:21:46;;;;;;;;;;;;;;;22.09;17.80;98799.44;4976671;28;1651;-73
2022/03/22 11:24:12;;;;;;;;;;;;;;;21.77;18.15;98805.59;4976769;28;1137;-73
2022/03/22 11:26:41;;;;;;;;;;;;;;;21.66;18.50;98819.13;4995772;28;2264;-73
2022/03/22 11:29:08;;;;;;;;;;;;;;;22.31;17.77;98819.75;4996232;28;1133;-73
2022/03/22 11:31:34;;;;;;;;;;;;;;;22.58;17.31;98818.91;4995892;28;997;-73
2022/03/22 11:34:09;;;;;;;;;;;;;;;22.11;17.81;98813.22;4995840;28;1611;-73
2022/03/22 11:36:39;;;;;;;;;;;;;;;21.75;18.21;98827.06;4991779;28;1724;-73
2022/03/22 11:39:04;;;;;;;;;;;;;;;21.52;18.37;98819.31;4975569;28;1757;-73
2022/03/22 11:44:32;;;;;;;;;;;;;;;22.29;17.98;98819.41;4996194;28;1105;-73
2022/03/22 11:47:06;;;;;;;;;;;;;;;22.60;17.59;98830.63;5021940;28;2003;-73
2022/03/22 11:49:46;;;;;;;;;;;;;;;22.34;17.84;98830.25;5054865;28;1125;-73
2022/03/22 11:52:12;;;;;;;;;;;;;;;21.64;18.50;98838.56;5018603;28;1289;-73
2022/03/22 11:54:38;;;;;;;;;;;;;;;21.67;18.31;98840.56;5035359;28;1038;-73
2022/03/22 11:57:03;;;;;;;;;;;;;;;22.04;18.31;98835.97;5018238;28;1116;-73
2022/03/22 11:59:37;;;;;;;;;;;;;;;22.44;17.90;98836.19;5025023;28;1754;-73
2022/03/22 12:02:04;;;;;;;;;;;;;;;22.61;17.75;98835.88;5034892;28;1275;-73
2022/03/22 12:04:34;;;;;;;;;;;;;;;21.90;18.48;98844.69;5026754;28;1518;-72
2022/03/22 12:07:00;;;;;;;;;;;;;;;21.55;18.68;98849.59;5051326;28;1914;-73
2022/03/22 12:09:26;;;;;;;;;;;;;;;21.49;18.65;98839.97;5061601;28;1047;-73
2022/03/22 12:11:51;;;;;;;;;;;;;;;22.27;18.00;98847.38;5074837;28;1026;-73
2022/03/22 12:14:30;;;;;;;;;;;;;;;22.42;17.71;98849.97;5068565;28;1674;-73
2022/03/22 12:16:56;;;;;;;;;;;;;;;21.93;18.29;98858.00;5054850;28;986;-73
2022/03/22 12:19:28;;;;;;;;;;;;;;;21.63;18.92;98856.78;5073351;28;1733;-73
2022/03/22 12:21:56;;;;;;;;;;;;;;;21.50;18.71;98869.88;5074817;28;1066;-73
2022/03/22 12:24:22;;;;;;;;;;;;;;;22.11;17.96;98852.88;5027758;28;1747;-73
2022/03/22 12:26:48;;;;;;;;;;;;;;;22.42;18.06;98869.81;5015585;28;1906;-72
2022/03/22 12:29:14;;;;;;;;;;;;;;;22.67;17.38;98867.38;5014702;28;1038;-73
2022/03/22 12:31:47;;;;;;;;;;;;;;;21.80;18.62;98878.38;5015112;28;993;-73
2022/03/22 12:34:12;;;;;;;;;;;;;;;21.72;18.53;98891.06;4998289;28;1069;-73
2022/03/22 12:36:38;;;;;;;;;;;;;;;21.67;18.94;98879.41;5015785;28;1683;-72
2022/03/22 12:39:04;;;;;;;;;;;;;;;22.06;18.31;98881.69;5014686;28;1726;-73
2022/03/22 12:41:30;;;;;;;;;;;;;;;22.36;18.10;98878.81;5033135;28;1143;-72
2022/03/22 12:43:55;;;;;;;;;;;;;;;22.36;18.02;98893.00;5034390;28;1022;-72
2022/03/22 12:46:21;;;;;;;;;;;;;;;21.81;18.69;98891.34;5044497;28;1930;-73
2022/03/22 12:48:50;;;;;;;;;;;;;;;21.62;18.92;98892.00;5033914;28;997;-73
2022/03/22 12:51:16;;;;;;;;;;;;;;;22.03;18.57;98896.72;5034106;28;1107;-73
2022/03/22 12:53:41;;;;;;;;;;;;;;;22.37;18.05;98902.31;5034071;28;1206;-73
2022/03/22 12:56:16;;;;;;;;;;;;;;;22.54;18.03;98920.28;5041518;28;1631;-72
2022/03/22 12:58:42;;;;;;;;;;;;;;;22.20;18.22;98898.50;5033877;28;1683;-73
2022/03/22 13:01:07;;;;;;;;;;;;;;;21.51;19.08;98911.16;5033841;28;976;-73
2022/03/22 13:03:32;;;;;;;;;;;;;;;21.54;18.87;98916.75;5033963;28;1243;-73
2022/03/22 13:05:58;;;;;;;;;;;;;;;22.06;18.48;98912.84;5040883;28;1981;-72
2022/03/22 13:08:24;;;;;;;;;;;;;;;22.40;17.98;98912.00;5053765;28;1010;-73
2022/03/22 13:16:29;;;;;;;;;;;;;;;21.59;18.65;98946.66;5022230;28;1665;-73
2022/03/22 13:18:58;;;;;;;;;;;;;;;21.56;18.93;98941.84;5013919;28;1070;-73
2022/03/22 13:21:24;;;;;;;;;;;;;;;22.07;18.36;98942.78;5013433;28;1144;-73
2022/03/22 13:24:07;;;;;;;;;;;;;;;22.34;17.99;98952.19;5013472;28;978;-73
2022/03/22 13:26:32;;;;;;;;;;;;;;;22.27;18.07;98943.75;5024541;28;1918;-73
2022/03/22 13:28:59;;;;;;;;;;;;;;;21.63;18.73;98952.28;5033629;28;1093;-73